Clifton, Illinois
Current Conditions -  °F | °C
As of 10:35 PM on Friday 24 Oct 2014 (Local Time) from KIKK Reporting Station
Broken Clouds Broken Clouds  
Wind Chill: 57°   Ceiling: 4600
Heat Index: 57°   Visibility: 10mi
Dew Point: 54°   Wind: 6mph
Humidity: 88%   Direction: 220°SW
Pressure: 29.97"   Gusts: NA
Location:  40.94°N, 87.93°W
Report Text: KIKK 250335Z AUTO 22005KT 10SM BKN046 BKN085 14/12 A2997 RMK AO2 T01400120
Loading
Personal Weather Stations






























Interactive Weather Map
Tropical Storm Tracking
New forecast layout! Learn more

10-Day Weather Forecast

Advertisements
Track Severe Weather on mobile